createdAt,value
2016-03-14T10:12:49.611Z,968.43
2016-03-14T10:13:49.380Z,968.46
2016-03-14T10:14:49.336Z,968.43
2016-03-14T10:15:49.369Z,968.41
2016-03-14T10:16:49.310Z,968.41
2016-03-14T10:17:49.296Z,968.41
2016-03-14T10:18:49.346Z,968.36
2016-03-14T10:19:49.287Z,968.36
2016-03-14T10:20:49.273Z,968.38
2016-03-14T10:21:49.324Z,968.27
2016-03-14T10:22:49.326Z,968.28
2016-03-14T10:23:49.329Z,968.24
2016-03-14T10:24:49.300Z,968.26
2016-03-14T10:25:49.256Z,968.21
2016-03-14T10:26:49.243Z,968.17
2016-03-14T10:27:49.245Z,968.23
2016-03-14T10:28:49.249Z,968.2
2016-03-14T10:29:49.329Z,968.18
2016-03-14T10:30:49.207Z,968.19
2016-03-14T10:31:49.194Z,968.23
2016-03-14T10:32:49.415Z,968.21
2016-03-14T10:33:49.153Z,968.16
2016-03-14T10:34:49.171Z,968.13
2016-03-14T10:35:49.126Z,968.12
2016-03-14T10:36:49.144Z,968.18
2016-03-14T10:38:49.119Z,968.08
2016-03-14T10:39:49.106Z,968.07
2016-03-14T10:40:49.093Z,968.06
2016-03-14T10:41:49.221Z,968.06
2016-03-14T10:42:49.067Z,968.1
2016-03-14T10:43:49.070Z,968.01
2016-03-14T10:44:49.057Z,968.01
2016-03-14T10:45:49.044Z,968.01
2016-03-14T10:46:49.375Z,967.95
2016-03-14T10:47:49.221Z,968
2016-03-14T10:48:49.005Z,967.95
2016-03-14T10:49:48.977Z,968.01
2016-03-14T10:50:48.995Z,967.98
2016-03-14T10:51:48.951Z,967.92
2016-03-14T10:52:48.953Z,967.94
2016-03-14T10:53:48.956Z,967.92
2016-03-14T10:54:48.927Z,967.93
2016-03-14T10:55:48.914Z,967.89
2016-03-14T10:56:48.902Z,967.94
2016-03-14T10:57:48.904Z,967.91
2016-03-14T10:58:48.892Z,967.82
2016-03-14T11:00:48.865Z,967.85
2016-03-14T11:01:48.869Z,967.88
2016-03-14T11:02:48.840Z,967.82
2016-03-14T11:03:48.827Z,967.81
2016-03-14T11:04:48.846Z,967.81
2016-03-14T11:05:48.802Z,967.81
2016-03-14T11:06:48.804Z,967.77
2016-03-14T11:07:48.792Z,967.77
2016-03-14T11:08:48.795Z,967.73
2016-03-14T11:09:48.765Z,967.72
2016-03-14T11:10:48.753Z,967.71
2016-03-14T11:11:48.739Z,967.71
2016-03-14T11:12:48.726Z,967.66
2016-03-14T11:13:48.729Z,967.72
2016-03-14T11:14:48.717Z,967.69
2016-03-14T11:15:48.704Z,967.71
2016-03-14T11:16:48.691Z,967.65
2016-03-14T11:17:48.662Z,967.69
2016-03-14T11:18:48.664Z,967.58
2016-03-14T11:19:48.652Z,967.6
2016-03-14T11:20:48.655Z,967.62
2016-03-14T11:21:48.629Z,967.57
2016-03-14T11:22:48.647Z,967.52
2016-03-14T11:23:48.649Z,967.51
2016-03-14T11:24:48.605Z,967.54
2016-03-14T11:25:48.593Z,967.56
2016-03-14T11:26:48.596Z,967.55
2016-03-14T11:27:48.566Z,967.52
2016-03-14T11:28:48.538Z,967.53
2016-03-14T11:29:48.650Z,967.49
2016-03-14T11:30:48.543Z,967.6
2016-03-14T11:31:48.547Z,967.52
2016-03-14T11:32:48.518Z,967.48
2016-03-14T11:33:48.536Z,967.47
2016-03-14T11:35:48.463Z,967.44
2016-03-14T11:36:48.498Z,967.43
2016-03-14T11:37:48.484Z,967.39
2016-03-14T11:38:48.456Z,967.41
2016-03-14T11:39:48.537Z,967.42
2016-03-14T11:40:48.445Z,967.41
2016-03-14T11:41:48.512Z,967.37
2016-03-14T11:42:48.514Z,967.35
2016-03-14T11:43:48.391Z,967.32
2016-03-14T11:44:48.409Z,967.32
2016-03-14T11:45:48.365Z,967.29
2016-03-14T11:46:48.353Z,967.31
2016-03-14T11:47:48.355Z,967.28
2016-03-14T11:48:48.467Z,967.23
2016-03-14T11:49:48.361Z,967.27
2016-03-14T11:50:48.332Z,967.22
2016-03-14T11:51:48.319Z,967.23
2016-03-14T11:52:48.322Z,967.22
2016-03-14T11:53:48.293Z,967.24
2016-03-14T11:54:48.273Z,967.18
2016-03-14T11:55:48.251Z,967.15
2016-03-14T11:56:48.259Z,967.15
2016-03-14T11:57:48.205Z,967.17
2016-03-14T11:58:48.173Z,967.16
2016-03-14T11:59:48.185Z,967.21
2016-03-14T12:00:48.169Z,967.12
2016-03-14T12:01:48.152Z,967.11
2016-03-14T12:02:48.135Z,967.12
2016-03-14T12:03:48.103Z,967.11
2016-03-14T12:04:48.120Z,967.07
2016-03-14T12:05:48.105Z,967.07
2016-03-14T12:06:48.123Z,967.02
2016-03-14T12:07:48.078Z,966.98
2016-03-14T12:08:48.079Z,966.98
2016-03-14T12:09:48.050Z,966.95
2016-03-14T12:10:48.053Z,967.02
2016-03-14T12:11:48.070Z,966.95
2016-03-14T12:12:47.901Z,966.94
2016-03-14T12:13:48.027Z,966.92
2016-03-14T12:14:48.015Z,966.9
2016-03-14T12:15:47.986Z,966.9
2016-03-14T12:16:47.973Z,966.88
2016-03-14T12:17:47.959Z,966.86
2016-03-14T12:18:47.977Z,966.85
2016-03-14T12:19:47.949Z,966.82
2016-03-14T12:20:47.951Z,966.84
2016-03-14T12:21:47.922Z,966.79
2016-03-14T12:22:47.924Z,966.8
2016-03-14T12:23:47.913Z,966.82
2016-03-14T12:24:47.899Z,966.77
2016-03-14T12:25:54.668Z,966.78
2016-03-14T12:26:47.764Z,966.73
2016-03-14T12:27:47.876Z,966.75
2016-03-14T12:28:47.862Z,966.73
2016-03-14T12:29:47.866Z,966.73
2016-03-14T12:30:47.854Z,966.73
2016-03-14T12:31:47.840Z,966.71
2016-03-14T12:32:47.827Z,966.75
2016-03-14T12:33:47.798Z,966.79
2016-03-14T12:34:47.817Z,966.74
2016-03-14T12:35:47.788Z,966.73
2016-03-14T12:36:47.792Z,966.73
2016-03-14T12:37:47.778Z,966.69
2016-03-14T12:38:47.765Z,966.64
2016-03-14T12:39:47.753Z,966.66
2016-03-14T12:40:47.771Z,966.62
2016-03-14T12:41:47.742Z,966.68
2016-03-14T12:42:47.745Z,966.69
2016-03-14T12:43:47.731Z,966.68
2016-03-14T12:44:47.703Z,966.66
2016-03-14T12:45:47.768Z,966.69
2016-03-14T12:46:47.693Z,966.65
2016-03-14T12:47:47.680Z,966.69
2016-03-14T12:48:47.651Z,966.66
2016-03-14T12:49:47.654Z,966.76
2016-03-14T12:50:47.657Z,966.7
2016-03-14T12:51:47.644Z,966.71
2016-03-14T12:52:47.615Z,966.7
2016-03-14T12:53:47.619Z,966.7
2016-03-14T12:54:47.590Z,966.69
2016-03-14T12:55:47.592Z,966.65
2016-03-14T12:56:47.564Z,966.63
2016-03-14T12:57:47.582Z,966.63
2016-03-14T12:58:47.554Z,966.63
2016-03-14T12:59:47.556Z,966.62
2016-03-14T13:00:47.527Z,966.61
2016-03-14T13:01:47.779Z,966.61
2016-03-14T13:02:47.532Z,966.65
2016-03-14T13:03:47.520Z,966.63
2016-03-14T13:04:47.491Z,966.6
2016-03-14T13:05:47.478Z,966.67
2016-03-14T13:06:47.481Z,966.63
2016-03-14T13:07:47.405Z,966.64
2016-03-14T13:08:47.456Z,966.61
2016-03-14T13:09:47.442Z,966.62
2016-03-14T13:10:47.461Z,966.59
2016-03-14T13:11:47.542Z,966.6
2016-03-14T13:12:47.419Z,966.6
2016-03-14T13:13:47.391Z,966.6
2016-03-14T13:14:47.408Z,966.58
2016-03-14T13:15:47.380Z,966.58
2016-03-14T13:16:47.414Z,966.53
2016-03-14T13:17:47.355Z,966.6
2016-03-14T13:18:47.560Z,966.59
2016-03-14T13:19:47.344Z,966.55
2016-03-14T13:20:47.315Z,966.56
2016-03-14T13:21:47.318Z,966.53
2016-03-14T13:22:47.415Z,966.55
2016-03-14T13:23:47.292Z,966.5
2016-03-14T13:24:47.296Z,966.48
2016-03-14T13:25:47.282Z,966.49
2016-03-14T13:26:47.269Z,966.55
2016-03-14T13:27:47.537Z,966.51
2016-03-14T13:28:47.244Z,966.57
2016-03-14T13:29:47.230Z,966.6
2016-03-14T13:30:47.232Z,966.53
2016-03-14T13:31:47.204Z,966.53
2016-03-14T13:32:47.192Z,966.49
2016-03-14T13:33:47.179Z,966.51
2016-03-14T13:34:47.166Z,966.42
2016-03-14T13:35:47.168Z,966.46
2016-03-14T13:36:47.140Z,966.41
2016-03-14T13:37:47.126Z,966.4
2016-03-14T13:38:47.114Z,966.37
2016-03-14T13:39:47.101Z,966.41
2016-03-14T13:40:47.103Z,966.35
2016-03-14T13:41:47.076Z,966.31
2016-03-14T13:42:47.078Z,966.34
2016-03-14T13:43:47.081Z,966.37
2016-03-14T13:44:47.083Z,966.31
2016-03-14T13:45:47.070Z,966.35
2016-03-14T13:46:47.026Z,966.31
2016-03-14T13:47:47.028Z,966.37
2016-03-14T13:48:47.016Z,966.32
2016-03-14T13:49:47.019Z,966.34
2016-03-14T13:50:46.991Z,966.36
2016-03-14T13:51:46.977Z,966.36
2016-03-14T13:52:46.964Z,966.35
2016-03-14T13:53:46.998Z,966.31
2016-03-14T13:54:46.939Z,966.34
2016-03-14T13:56:46.927Z,966.29
2016-03-14T13:57:46.899Z,966.29
2016-03-14T13:58:46.902Z,966.28
2016-03-14T13:59:46.890Z,966.26
2016-03-14T14:00:46.860Z,966.28
2016-03-14T14:01:46.863Z,966.35
2016-03-14T14:02:46.865Z,966.35
2016-03-14T14:03:46.837Z,966.36
2016-03-14T14:04:46.824Z,966.36
2016-03-14T14:05:46.843Z,966.32
2016-03-14T14:06:46.804Z,966.32
2016-03-14T14:07:46.790Z,966.34
2016-03-14T14:08:46.777Z,966.31
2016-03-14T14:09:46.764Z,966.29
2016-03-14T14:10:46.767Z,966.21
2016-03-14T14:11:46.770Z,966.24
2016-03-14T14:12:46.726Z,966.23
2016-03-14T14:13:46.729Z,966.17
2016-03-14T14:14:46.700Z,966.15
2016-03-14T14:15:46.703Z,966.14
2016-03-14T14:16:46.689Z,966.12
2016-03-14T14:17:46.739Z,966.14
2016-03-14T14:18:46.664Z,966.17
2016-03-14T14:19:46.666Z,966.2
2016-03-14T14:20:46.669Z,966.17
2016-03-14T14:21:46.641Z,966.22
2016-03-14T14:22:47.019Z,966.23
2016-03-14T14:23:46.708Z,966.21
2016-03-14T14:24:46.586Z,966.24
2016-03-14T14:25:46.589Z,966.24
2016-03-14T14:26:46.576Z,966.23
2016-03-14T14:27:46.579Z,966.19
2016-03-14T14:28:46.565Z,966.13
2016-03-14T14:29:46.553Z,966.13
2016-03-14T14:30:46.524Z,966.15
2016-03-14T14:31:46.512Z,966.16
2016-03-14T14:32:46.515Z,966.17
2016-03-14T14:33:46.517Z,966.16
2016-03-14T14:34:46.488Z,966.13
2016-03-14T14:35:46.475Z,966.12
2016-03-14T14:36:46.462Z,966.16
2016-03-14T14:37:46.450Z,966.15
2016-03-14T14:38:46.437Z,966.13
2016-03-14T14:39:46.534Z,966.12
2016-03-14T14:40:46.426Z,966.11
2016-03-14T14:41:46.414Z,966.12
2016-03-14T14:42:46.400Z,966.11
2016-03-14T14:43:46.372Z,966.05
2016-03-14T14:44:46.390Z,966.05
2016-03-14T14:45:46.361Z,965.99
2016-03-14T14:46:46.489Z,965.97
2016-03-14T14:47:46.335Z,965.95
2016-03-14T14:48:46.339Z,965.92
2016-03-14T14:49:46.310Z,965.9
2016-03-14T14:50:46.313Z,965.95
2016-03-14T14:51:46.316Z,965.98
2016-03-14T14:52:46.536Z,965.93
2016-03-14T14:54:46.261Z,965.89
2016-03-14T14:55:46.263Z,965.89
2016-03-14T14:56:46.235Z,965.9
2016-03-14T14:57:46.237Z,965.87
2016-03-14T14:58:46.209Z,965.88
2016-03-14T14:59:46.212Z,965.86
2016-03-14T15:00:46.199Z,965.88
2016-03-14T15:01:46.186Z,965.87
2016-03-14T15:02:46.173Z,965.8
2016-03-14T15:03:46.159Z,965.81
2016-03-14T15:04:46.179Z,965.77
2016-03-14T15:05:46.150Z,965.71
2016-03-14T15:06:46.121Z,965.79
2016-03-14T15:07:46.123Z,965.74
2016-03-14T15:08:46.095Z,965.72
2016-03-14T15:09:46.098Z,965.69
2016-03-14T15:10:46.101Z,965.67
2016-03-14T15:11:52.853Z,965.69
2016-03-14T15:12:46.059Z,965.64
2016-03-14T15:13:46.437Z,965.67
2016-03-14T15:14:46.049Z,965.65
2016-03-14T15:15:46.036Z,965.66
2016-03-14T15:16:46.023Z,965.62
2016-03-14T15:17:45.994Z,965.65
2016-03-14T15:18:45.981Z,965.64
2016-03-14T15:19:46.000Z,965.64
2016-03-14T15:20:45.986Z,965.61
2016-03-14T15:21:46.005Z,965.63
2016-03-14T15:22:46.039Z,965.62
2016-03-14T15:23:45.948Z,965.62
2016-03-14T15:24:45.935Z,965.6
2016-03-14T15:25:45.938Z,965.63
2016-03-14T15:26:45.910Z,965.6
2016-03-14T15:27:45.912Z,965.62
2016-03-14T15:28:45.883Z,965.63
2016-03-14T15:29:45.854Z,965.65
2016-03-14T15:30:45.858Z,965.72
2016-03-14T15:31:45.845Z,965.68
2016-03-14T15:32:45.848Z,965.64
2016-03-14T15:33:45.819Z,965.6
2016-03-14T15:34:45.806Z,965.57
2016-03-14T15:35:45.809Z,965.58
2016-03-14T15:36:45.780Z,965.57
2016-03-14T15:37:45.798Z,965.56
2016-03-14T15:38:45.785Z,965.53
2016-03-14T15:39:45.741Z,965.53
2016-03-14T15:40:45.744Z,965.61
2016-03-14T15:41:45.731Z,965.58
2016-03-14T15:42:45.765Z,965.6
2016-03-14T15:43:45.706Z,965.59
2016-03-14T15:44:45.708Z,965.56
2016-03-14T15:45:45.679Z,965.51
2016-03-14T15:46:45.681Z,965.52
2016-03-14T15:47:45.669Z,965.51
2016-03-14T15:48:45.656Z,965.53
2016-03-14T15:49:45.648Z,965.49
2016-03-14T15:50:45.636Z,965.55
2016-03-14T15:51:48.403Z,965.59
2016-03-14T15:52:45.625Z,965.61
2016-03-14T15:53:45.581Z,965.7
2016-03-14T15:54:45.599Z,965.67
2016-03-14T15:55:45.585Z,965.64
2016-03-14T15:56:45.574Z,965.68
2016-03-14T15:57:45.544Z,965.66
2016-03-14T15:58:45.563Z,965.69
2016-03-14T15:59:45.534Z,965.7
2016-03-14T16:00:45.522Z,965.7
2016-03-14T16:01:45.509Z,965.71
2016-03-14T16:02:45.496Z,965.66
2016-03-14T16:03:45.482Z,965.7
2016-03-14T16:04:45.470Z,965.69
2016-03-14T16:05:45.473Z,965.63
2016-03-14T16:06:45.772Z,965.67
2016-03-14T16:07:45.462Z,965.66
2016-03-14T16:08:45.434Z,965.7
2016-03-14T16:09:45.406Z,965.7
2016-03-14T16:10:45.408Z,965.67
2016-03-14T16:11:45.411Z,965.74
2016-03-14T16:12:45.756Z,965.78
2016-03-14T16:13:45.385Z,965.73
2016-03-14T16:14:45.340Z,965.76
2016-03-14T16:15:45.359Z,965.77
2016-03-14T16:16:45.330Z,965.77
2016-03-14T16:17:45.333Z,965.77
2016-03-14T16:18:45.491Z,965.72
2016-03-14T16:19:45.308Z,965.68
2016-03-14T16:20:45.294Z,965.7
2016-03-14T16:21:45.297Z,965.72
2016-03-14T16:22:45.253Z,965.67
2016-03-14T16:23:45.349Z,965.72
2016-03-14T16:24:45.242Z,965.69
2016-03-14T16:25:45.230Z,965.7
2016-03-14T16:26:45.357Z,965.73
2016-03-14T16:27:45.297Z,965.69
2016-03-14T16:28:45.190Z,965.72
2016-03-14T16:29:45.193Z,965.68
2016-03-14T16:30:45.196Z,965.72
2016-03-14T16:31:45.386Z,965.68
2016-03-14T16:32:45.232Z,965.64
2016-03-14T16:33:45.131Z,965.64
2016-03-14T16:34:45.134Z,965.62
2016-03-14T16:35:45.120Z,965.63
2016-03-14T16:36:44.982Z,965.56
2016-03-14T16:37:45.110Z,965.58
2016-03-14T16:38:45.098Z,965.58
2016-03-14T16:39:45.053Z,965.61
2016-03-14T16:40:45.056Z,965.57
2016-03-14T16:41:45.042Z,965.54
2016-03-14T16:42:45.061Z,965.55
2016-03-14T16:43:45.017Z,965.49
2016-03-14T16:44:45.020Z,965.5
2016-03-14T16:45:44.991Z,965.47
2016-03-14T16:46:45.088Z,965.46
2016-03-14T16:47:44.981Z,965.46
2016-03-14T16:48:44.983Z,965.44
2016-03-14T16:49:44.939Z,965.45
2016-03-14T16:50:44.958Z,965.43
2016-03-14T16:51:44.929Z,965.44
2016-03-14T16:52:44.900Z,965.46
2016-03-14T16:53:44.903Z,965.46
2016-03-14T16:54:44.984Z,965.48
2016-03-14T16:55:44.893Z,965.42
2016-03-14T16:56:44.865Z,965.39
2016-03-14T16:57:44.945Z,965.38
2016-03-14T16:58:44.839Z,965.4
2016-03-14T16:59:44.826Z,965.34
2016-03-14T17:00:44.813Z,965.32
2016-03-14T17:01:44.800Z,965.36
2016-03-14T17:02:44.803Z,965.32
2016-03-14T17:03:45.010Z,965.32
2016-03-14T17:04:44.763Z,965.29
2016-03-14T17:05:44.733Z,965.26
2016-03-14T17:06:44.753Z,965.35
2016-03-14T17:07:44.725Z,965.32
2016-03-14T17:08:44.695Z,965.34
2016-03-14T17:09:44.714Z,965.3
2016-03-14T17:10:44.701Z,965.31
2016-03-14T17:11:44.689Z,965.28
2016-03-14T17:12:44.675Z,965.27
2016-03-14T17:13:44.647Z,965.29
2016-03-14T17:14:44.634Z,965.26
2016-03-14T17:15:44.621Z,965.27
2016-03-14T17:16:44.625Z,965.23
2016-03-14T17:17:47.393Z,965.23
2016-03-14T17:18:44.584Z,965.24
2016-03-14T17:19:44.586Z,965.23
2016-03-14T17:20:44.667Z,965.21
2016-03-14T17:21:44.544Z,965.16
2016-03-14T17:22:44.547Z,965.2
2016-03-14T17:23:44.534Z,965.19
2016-03-14T17:24:44.615Z,965.22
2016-03-14T17:25:44.492Z,965.16
2016-03-14T17:26:44.511Z,965.18
2016-03-14T17:27:44.467Z,965.15
2016-03-14T17:28:44.563Z,965.2
